Wednesday, May 24, 2017, 4:15 AM EDT
Back to Local

KAGC, Pittsburgh Allegheny Cty.

Location: West Mifflin, PA, United States Lat: 40.35
Local Time: 4:15 AM EDT ( 8:15 GMT) Lon: -79.917
Time Zone: US/Eastern Elev: 1253 ft

Show me the last for .
Show Decoded

2017-05-24 03:53 METAR KAGC 240753Z AUTO 00000KT 10SM OVC085 14/10 A2966 RMK AO2 SLP043 T01440100
                 =
2017-05-24 02:53 METAR KAGC 240653Z AUTO 00000KT 10SM OVC090 14/10 A2967 RMK AO2 SLP047 T01440100
                 =
2017-05-24 01:53 METAR KAGC 240553Z AUTO 11003KT 10SM SCT060 OVC080 15/10 A2970 RMK AO2 SLP056
                 T01500100 10183 20150 55012 =
2017-05-24 00:53 METAR KAGC 240453Z AUTO 14003KT 10SM OVC085 15/10 A2970 RMK AO2 SLP055 T01500100
                 402170094 =
2017-05-23 23:53 METAR KAGC 240353Z AUTO 16005KT 10SM BKN040 OVC100 16/10 A2972 RMK AO2 SLP064
                 T01560100 =
2017-05-23 22:53 METAR KAGC 240253Z AUTO 15008KT 10SM BKN034 OVC110 16/09 A2974 RMK AO2 SLP070
                 T01610094 58005 =
2017-05-23 21:53 METAR KAGC 240153Z AUTO 15009KT 10SM FEW042 BKN050 OVC065 17/09 A2975 RMK AO2
                 SLP075 T01720089 =
2017-05-23 20:53 METAR KAGC 240053Z AUTO 15007KT 10SM SCT060 17/09 A2975 RMK AO2 SLP075 T01720089
                 =
2017-05-23 19:53 METAR KAGC 232353Z AUTO 14008KT 10SM BKN046 18/09 A2975 RMK AO2 SLP077 T01830089
                 10217 20183 55005 =
2017-05-23 18:53 METAR KAGC 232253Z AUTO 16011KT 10SM CLR 19/09 A2975 RMK AO2 SLP075 T01940089 =
2017-05-23 17:53 METAR KAGC 232153Z AUTO 12006KT 10SM CLR 21/08 A2976 RMK AO2 SLP078 T02110083 =
2017-05-23 16:53 METAR KAGC 232053Z AUTO 15008KT 10SM CLR 21/08 A2977 RMK AO2 SLP082 T02110083
                 56019 =
2017-05-23 15:53 METAR KAGC 231953Z AUTO 12008KT 10SM CLR 22/08 A2979 RMK AO2 SLP087 T02170083 =
2017-05-23 14:53 METAR KAGC 231853Z 14008KT 10SM CLR 21/08 A2981 RMK AO2 SLP096 T02110078 =
2017-05-23 13:53 METAR KAGC 231753Z 13010KT 10SM CLR 21/07 A2983 RMK AO2 SLP101 T02060072 10206
                 20111 58026 =
2017-05-23 12:53 METAR KAGC 231653Z 12009KT 10SM CLR 20/07 A2987 RMK AO2 SLP115 T02000067 =
2017-05-23 11:53 METAR KAGC 231553Z 11010G17KT 10SM CLR 19/06 A2989 RMK AO2 SLP122 T01890061 =
2017-05-23 10:53 METAR KAGC 231453Z 09011KT 10SM CLR 18/07 A2991 RMK AO2 SLP128 T01780072 58010 =
2017-05-23 09:53 METAR KAGC 231353Z 04005KT 10SM CLR 17/08 A2993 RMK AO2 SLP138 T01670083 =
2017-05-23 08:53 METAR KAGC 231253Z 11004KT 10SM CLR 13/09 A2996 RMK AO2 SLP147 T01330094 =
2017-05-23 07:53 METAR KAGC 231153Z 01003KT 8SM CLR 11/09 A2994 RMK AO2 SLP141 T01110089 10139
                 20094 58004 =
2017-05-23 06:53 METAR KAGC 231053Z 11003KT 10SM CLR 11/08 A2995 RMK AO2 SLP144 T01060083 =
2017-05-23 05:53 METAR KAGC 230953Z 14003KT 9SM CLR 10/08 A2994 RMK AO2 SLP142 T01000078 =
2017-05-23 04:53 METAR KAGC 230853Z 07004KT 7SM CLR 10/08 A2995 RMK AO2 SLP144 T01000078 58017 =

Support USWX by starting your Amazon purchase here.